sensor_id;sensor_type;location;lat;lon;timestamp;P1;durP1;ratioP1;P2;durP2;ratioP2
51660;SDS011;37741;49.748;8.490;2022-12-18T00:02:13;41.67;;;21.47;;
51660;SDS011;37741;49.748;8.490;2022-12-18T00:04:38;38.00;;;22.87;;
51660;SDS011;37741;49.748;8.490;2022-12-18T00:07:04;38.70;;;20.83;;
51660;SDS011;37741;49.748;8.490;2022-12-18T00:09:29;44.40;;;21.93;;
51660;SDS011;37741;49.748;8.490;2022-12-18T00:11:55;42.57;;;22.87;;
51660;SDS011;37741;49.748;8.490;2022-12-18T00:14:21;41.47;;;21.90;;
51660;SDS011;37741;49.748;8.490;2022-12-18T00:16:46;38.03;;;21.43;;
51660;SDS011;37741;49.748;8.490;2022-12-18T00:19:13;37.97;;;22.10;;
51660;SDS011;37741;49.748;8.490;2022-12-18T00:21:42;39.37;;;22.27;;
51660;SDS011;37741;49.748;8.490;2022-12-18T00:24:09;37.03;;;20.70;;
51660;SDS011;37741;49.748;8.490;2022-12-18T00:26:36;37.50;;;20.77;;
51660;SDS011;37741;49.748;8.490;2022-12-18T00:29:04;36.23;;;20.33;;
51660;SDS011;37741;49.748;8.490;2022-12-18T00:31:41;36.07;;;19.27;;
51660;SDS011;37741;49.748;8.490;2022-12-18T00:34:12;33.13;;;19.50;;
51660;SDS011;37741;49.748;8.490;2022-12-18T00:36:38;36.20;;;20.00;;
51660;SDS011;37741;49.748;8.490;2022-12-18T00:39:05;39.50;;;22.43;;
51660;SDS011;37741;49.748;8.490;2022-12-18T00:41:31;36.80;;;21.03;;
51660;SDS011;37741;49.748;8.490;2022-12-18T00:44:16;38.70;;;21.23;;
51660;SDS011;37741;49.748;8.490;2022-12-18T00:46:43;36.50;;;21.23;;
51660;SDS011;37741;49.748;8.490;2022-12-18T00:49:11;38.43;;;21.40;;
51660;SDS011;37741;49.748;8.490;2022-12-18T00:51:37;37.20;;;21.27;;
51660;SDS011;37741;49.748;8.490;2022-12-18T00:54:03;38.60;;;22.83;;
51660;SDS011;37741;49.748;8.490;2022-12-18T00:56:29;38.50;;;21.07;;
51660;SDS011;37741;49.748;8.490;2022-12-18T00:58:54;33.27;;;19.17;;
51660;SDS011;37741;49.748;8.490;2022-12-18T01:01:20;36.23;;;20.70;;
51660;SDS011;37741;49.748;8.490;2022-12-18T01:03:45;38.67;;;21.17;;
51660;SDS011;37741;49.748;8.490;2022-12-18T01:06:12;36.23;;;20.33;;
51660;SDS011;37741;49.748;8.490;2022-12-18T01:08:39;37.20;;;21.30;;
51660;SDS011;37741;49.748;8.490;2022-12-18T01:11:09;38.93;;;20.63;;
51660;SDS011;37741;49.748;8.490;2022-12-18T01:13:36;38.23;;;20.50;;
51660;SDS011;37741;49.748;8.490;2022-12-18T01:16:02;36.37;;;20.30;;
51660;SDS011;37741;49.748;8.490;2022-12-18T01:18:28;38.77;;;20.83;;
51660;SDS011;37741;49.748;8.490;2022-12-18T01:20:54;36.00;;;20.70;;
51660;SDS011;37741;49.748;8.490;2022-12-18T01:23:19;37.60;;;20.97;;
51660;SDS011;37741;49.748;8.490;2022-12-18T01:25:45;42.93;;;22.33;;
51660;SDS011;37741;49.748;8.490;2022-12-18T01:28:10;36.53;;;20.13;;
51660;SDS011;37741;49.748;8.490;2022-12-18T01:30:36;36.20;;;20.73;;
51660;SDS011;37741;49.748;8.490;2022-12-18T01:33:03;37.90;;;22.17;;
51660;SDS011;37741;49.748;8.490;2022-12-18T01:35:30;34.93;;;20.23;;
51660;SDS011;37741;49.748;8.490;2022-12-18T01:37:56;36.27;;;21.53;;
51660;SDS011;37741;49.748;8.490;2022-12-18T01:40:21;40.77;;;21.87;;
51660;SDS011;37741;49.748;8.490;2022-12-18T01:42:54;39.43;;;21.53;;
51660;SDS011;37741;49.748;8.490;2022-12-18T01:45:24;38.03;;;20.53;;
51660;SDS011;37741;49.748;8.490;2022-12-18T01:48:05;35.63;;;20.60;;
51660;SDS011;37741;49.748;8.490;2022-12-18T01:50:34;40.60;;;21.87;;
51660;SDS011;37741;49.748;8.490;2022-12-18T01:53:05;35.67;;;20.47;;
51660;SDS011;37741;49.748;8.490;2022-12-18T01:55:36;41.30;;;22.73;;
51660;SDS011;37741;49.748;8.490;2022-12-18T01:58:07;40.97;;;20.67;;
51660;SDS011;37741;49.748;8.490;2022-12-18T02:00:33;38.90;;;20.30;;
51660;SDS011;37741;49.748;8.490;2022-12-18T02:02:59;38.93;;;20.57;;
51660;SDS011;37741;49.748;8.490;2022-12-18T02:05:40;38.17;;;21.20;;
51660;SDS011;37741;49.748;8.490;2022-12-18T02:15:54;39.63;;;19.33;;
51660;SDS011;37741;49.748;8.490;2022-12-18T02:18:38;37.07;;;20.73;;
51660;SDS011;37741;49.748;8.490;2022-12-18T02:21:18;35.97;;;19.60;;
51660;SDS011;37741;49.748;8.490;2022-12-18T02:23:57;33.93;;;18.77;;
51660;SDS011;37741;49.748;8.490;2022-12-18T02:26:55;40.77;;;20.33;;
51660;SDS011;37741;49.748;8.490;2022-12-18T02:29:29;36.63;;;21.38;;
51660;SDS011;37741;49.748;8.490;2022-12-18T02:31:57;35.57;;;20.00;;
51660;SDS011;37741;49.748;8.490;2022-12-18T02:34:29;35.97;;;20.47;;
51660;SDS011;37741;49.748;8.490;2022-12-18T02:36:57;38.90;;;19.87;;
51660;SDS011;37741;49.748;8.490;2022-12-18T02:39:25;34.90;;;18.10;;
51660;SDS011;37741;49.748;8.490;2022-12-18T02:41:52;40.20;;;22.43;;
51660;SDS011;37741;49.748;8.490;2022-12-18T02:44:18;33.10;;;18.53;;
51660;SDS011;37741;49.748;8.490;2022-12-18T02:46:50;38.90;;;19.37;;
51660;SDS011;37741;49.748;8.490;2022-12-18T02:49:31;33.10;;;19.57;;
51660;SDS011;37741;49.748;8.490;2022-12-18T02:57:28;32.07;;;17.90;;
51660;SDS011;37741;49.748;8.490;2022-12-18T03:00:08;32.13;;;18.73;;
51660;SDS011;37741;49.748;8.490;2022-12-18T03:05:35;36.33;;;20.50;;
51660;SDS011;37741;49.748;8.490;2022-12-18T03:08:08;35.43;;;18.63;;
51660;SDS011;37741;49.748;8.490;2022-12-18T03:10:41;31.33;;;18.43;;
51660;SDS011;37741;49.748;8.490;2022-12-18T03:13:16;34.47;;;18.93;;
51660;SDS011;37741;49.748;8.490;2022-12-18T03:15:47;32.00;;;19.10;;
51660;SDS011;37741;49.748;8.490;2022-12-18T03:18:17;33.93;;;19.00;;
51660;SDS011;37741;49.748;8.490;2022-12-18T03:20:48;32.80;;;18.37;;
51660;SDS011;37741;49.748;8.490;2022-12-18T03:23:17;33.93;;;20.33;;
51660;SDS011;37741;49.748;8.490;2022-12-18T03:25:47;33.73;;;19.13;;
51660;SDS011;37741;49.748;8.490;2022-12-18T03:28:17;30.27;;;18.60;;
51660;SDS011;37741;49.748;8.490;2022-12-18T03:30:46;32.30;;;17.97;;
51660;SDS011;37741;49.748;8.490;2022-12-18T03:33:21;35.53;;;19.07;;
51660;SDS011;37741;49.748;8.490;2022-12-18T03:36:07;34.53;;;19.37;;
51660;SDS011;37741;49.748;8.490;2022-12-18T03:38:33;34.27;;;19.63;;
51660;SDS011;37741;49.748;8.490;2022-12-18T03:41:01;34.70;;;18.30;;
51660;SDS011;37741;49.748;8.490;2022-12-18T03:43:52;33.40;;;19.73;;
51660;SDS011;37741;49.748;8.490;2022-12-18T03:46:29;33.70;;;19.30;;
51660;SDS011;37741;49.748;8.490;2022-12-18T03:49:09;32.23;;;18.27;;
51660;SDS011;37741;49.748;8.490;2022-12-18T03:51:40;35.07;;;18.83;;
51660;SDS011;37741;49.748;8.490;2022-12-18T03:54:14;33.88;;;18.48;;
51660;SDS011;37741;49.748;8.490;2022-12-18T03:56:45;33.67;;;18.23;;
51660;SDS011;37741;49.748;8.490;2022-12-18T03:59:16;34.30;;;18.87;;
51660;SDS011;37741;49.748;8.490;2022-12-18T04:01:45;31.33;;;16.83;;
51660;SDS011;37741;49.748;8.490;2022-12-18T04:04:14;35.03;;;19.90;;
51660;SDS011;37741;49.748;8.490;2022-12-18T04:06:41;33.67;;;18.17;;
51660;SDS011;37741;49.748;8.490;2022-12-18T04:09:08;31.50;;;17.37;;
51660;SDS011;37741;49.748;8.490;2022-12-18T04:11:34;38.43;;;21.17;;
51660;SDS011;37741;49.748;8.490;2022-12-18T04:14:00;33.87;;;17.50;;
51660;SDS011;37741;49.748;8.490;2022-12-18T04:16:26;31.50;;;16.23;;
51660;SDS011;37741;49.748;8.490;2022-12-18T04:18:52;32.73;;;18.53;;
51660;SDS011;37741;49.748;8.490;2022-12-18T04:21:18;30.07;;;18.07;;
51660;SDS011;37741;49.748;8.490;2022-12-18T04:23:44;33.83;;;17.47;;
51660;SDS011;37741;49.748;8.490;2022-12-18T04:26:10;31.13;;;16.77;;
51660;SDS011;37741;49.748;8.490;2022-12-18T04:28:36;32.27;;;18.90;;
51660;SDS011;37741;49.748;8.490;2022-12-18T04:31:01;33.77;;;18.50;;
51660;SDS011;37741;49.748;8.490;2022-12-18T04:33:28;34.40;;;17.87;;
51660;SDS011;37741;49.748;8.490;2022-12-18T04:35:54;31.90;;;17.87;;
51660;SDS011;37741;49.748;8.490;2022-12-18T04:38:20;34.50;;;18.57;;
51660;SDS011;37741;49.748;8.490;2022-12-18T04:40:46;31.30;;;18.07;;
51660;SDS011;37741;49.748;8.490;2022-12-18T04:43:11;32.47;;;17.03;;
51660;SDS011;37741;49.748;8.490;2022-12-18T04:45:37;32.93;;;17.53;;
51660;SDS011;37741;49.748;8.490;2022-12-18T04:48:03;32.70;;;18.40;;
51660;SDS011;37741;49.748;8.490;2022-12-18T04:50:29;39.57;;;19.13;;
51660;SDS011;37741;49.748;8.490;2022-12-18T04:52:55;31.07;;;17.30;;
51660;SDS011;37741;49.748;8.490;2022-12-18T04:55:21;30.77;;;17.70;;
51660;SDS011;37741;49.748;8.490;2022-12-18T04:57:46;35.67;;;18.73;;
51660;SDS011;37741;49.748;8.490;2022-12-18T05:00:12;31.77;;;16.97;;
51660;SDS011;37741;49.748;8.490;2022-12-18T05:02:38;31.27;;;16.67;;
51660;SDS011;37741;49.748;8.490;2022-12-18T05:05:04;30.40;;;18.20;;
51660;SDS011;37741;49.748;8.490;2022-12-18T05:07:30;31.30;;;16.70;;
51660;SDS011;37741;49.748;8.490;2022-12-18T05:09:56;30.53;;;17.37;;
51660;SDS011;37741;49.748;8.490;2022-12-18T05:12:21;33.23;;;18.13;;
51660;SDS011;37741;49.748;8.490;2022-12-18T05:14:47;29.40;;;16.30;;
51660;SDS011;37741;49.748;8.490;2022-12-18T05:17:12;30.17;;;17.70;;
51660;SDS011;37741;49.748;8.490;2022-12-18T05:19:38;33.03;;;18.23;;
51660;SDS011;37741;49.748;8.490;2022-12-18T05:22:04;32.13;;;17.90;;
51660;SDS011;37741;49.748;8.490;2022-12-18T05:24:29;33.13;;;17.90;;
51660;SDS011;37741;49.748;8.490;2022-12-18T05:26:55;32.10;;;17.50;;
51660;SDS011;37741;49.748;8.490;2022-12-18T05:29:20;35.50;;;16.70;;
51660;SDS011;37741;49.748;8.490;2022-12-18T05:31:46;29.17;;;16.67;;
51660;SDS011;37741;49.748;8.490;2022-12-18T05:34:12;33.50;;;18.07;;
51660;SDS011;37741;49.748;8.490;2022-12-18T05:36:39;28.87;;;16.80;;
51660;SDS011;37741;49.748;8.490;2022-12-18T05:39:04;34.00;;;18.07;;
51660;SDS011;37741;49.748;8.490;2022-12-18T05:41:31;31.03;;;17.27;;
51660;SDS011;37741;49.748;8.490;2022-12-18T05:43:56;34.03;;;19.07;;
51660;SDS011;37741;49.748;8.490;2022-12-18T05:46:23;28.63;;;16.43;;
51660;SDS011;37741;49.748;8.490;2022-12-18T05:48:49;30.37;;;17.60;;
51660;SDS011;37741;49.748;8.490;2022-12-18T05:51:17;30.80;;;17.03;;
51660;SDS011;37741;49.748;8.490;2022-12-18T05:53:44;25.80;;;15.83;;
51660;SDS011;37741;49.748;8.490;2022-12-18T05:56:11;33.40;;;17.33;;
51660;SDS011;37741;49.748;8.490;2022-12-18T05:58:41;28.27;;;15.80;;
51660;SDS011;37741;49.748;8.490;2022-12-18T06:03:34;30.63;;;16.87;;
51660;SDS011;37741;49.748;8.490;2022-12-18T06:06:00;30.80;;;15.27;;
51660;SDS011;37741;49.748;8.490;2022-12-18T06:08:25;30.53;;;16.67;;
51660;SDS011;37741;49.748;8.490;2022-12-18T06:10:51;27.07;;;15.57;;
51660;SDS011;37741;49.748;8.490;2022-12-18T06:13:18;29.83;;;17.30;;
51660;SDS011;37741;49.748;8.490;2022-12-18T06:15:44;28.10;;;15.50;;
51660;SDS011;37741;49.748;8.490;2022-12-18T06:18:10;29.20;;;17.10;;
51660;SDS011;37741;49.748;8.490;2022-12-18T06:20:35;31.00;;;16.80;;
51660;SDS011;37741;49.748;8.490;2022-12-18T06:23:02;29.40;;;16.33;;
51660;SDS011;37741;49.748;8.490;2022-12-18T06:25:28;34.30;;;17.47;;
51660;SDS011;37741;49.748;8.490;2022-12-18T06:27:54;31.73;;;17.87;;
51660;SDS011;37741;49.748;8.490;2022-12-18T06:30:19;31.17;;;15.97;;
51660;SDS011;37741;49.748;8.490;2022-12-18T06:32:45;29.93;;;16.43;;
51660;SDS011;37741;49.748;8.490;2022-12-18T06:35:10;29.50;;;17.57;;
51660;SDS011;37741;49.748;8.490;2022-12-18T06:37:36;31.37;;;19.33;;
51660;SDS011;37741;49.748;8.490;2022-12-18T06:40:02;34.87;;;18.03;;
51660;SDS011;37741;49.748;8.490;2022-12-18T06:42:28;30.40;;;17.40;;
51660;SDS011;37741;49.748;8.490;2022-12-18T06:44:53;31.67;;;16.20;;
51660;SDS011;37741;49.748;8.490;2022-12-18T06:47:19;34.03;;;17.97;;
51660;SDS011;37741;49.748;8.490;2022-12-18T06:49:45;31.70;;;17.73;;
51660;SDS011;37741;49.748;8.490;2022-12-18T06:52:24;28.27;;;16.43;;
51660;SDS011;37741;49.748;8.490;2022-12-18T06:54:49;28.47;;;16.97;;
51660;SDS011;37741;49.748;8.490;2022-12-18T06:57:15;31.87;;;16.93;;
51660;SDS011;37741;49.748;8.490;2022-12-18T06:59:41;28.97;;;15.97;;
51660;SDS011;37741;49.748;8.490;2022-12-18T07:02:06;31.93;;;17.13;;
51660;SDS011;37741;49.748;8.490;2022-12-18T07:04:35;32.90;;;19.20;;
51660;SDS011;37741;49.748;8.490;2022-12-18T07:07:01;31.97;;;18.10;;
51660;SDS011;37741;49.748;8.490;2022-12-18T07:09:26;30.97;;;17.43;;
51660;SDS011;37741;49.748;8.490;2022-12-18T07:11:52;34.47;;;17.83;;
51660;SDS011;37741;49.748;8.490;2022-12-18T07:14:17;32.17;;;17.03;;
51660;SDS011;37741;49.748;8.490;2022-12-18T07:16:43;32.13;;;18.37;;
51660;SDS011;37741;49.748;8.490;2022-12-18T07:19:09;30.90;;;17.93;;
51660;SDS011;37741;49.748;8.490;2022-12-18T07:21:34;30.00;;;19.37;;
51660;SDS011;37741;49.748;8.490;2022-12-18T07:24:00;30.57;;;17.77;;
51660;SDS011;37741;49.748;8.490;2022-12-18T07:26:25;33.17;;;17.30;;
51660;SDS011;37741;49.748;8.490;2022-12-18T07:28:54;34.40;;;17.23;;
51660;SDS011;37741;49.748;8.490;2022-12-18T07:31:21;29.50;;;17.07;;
51660;SDS011;37741;49.748;8.490;2022-12-18T07:33:47;31.33;;;16.63;;
51660;SDS011;37741;49.748;8.490;2022-12-18T07:36:14;30.97;;;17.00;;
51660;SDS011;37741;49.748;8.490;2022-12-18T07:38:40;32.13;;;17.80;;
51660;SDS011;37741;49.748;8.490;2022-12-18T07:43:34;28.73;;;16.00;;
51660;SDS011;37741;49.748;8.490;2022-12-18T07:46:01;26.07;;;15.70;;
51660;SDS011;37741;49.748;8.490;2022-12-18T07:48:32;28.07;;;16.27;;
51660;SDS011;37741;49.748;8.490;2022-12-18T07:50:59;30.73;;;16.93;;
51660;SDS011;37741;49.748;8.490;2022-12-18T07:53:35;26.00;;;14.93;;
51660;SDS011;37741;49.748;8.490;2022-12-18T07:56:03;31.40;;;15.83;;
51660;SDS011;37741;49.748;8.490;2022-12-18T07:58:33;31.23;;;17.30;;
51660;SDS011;37741;49.748;8.490;2022-12-18T08:01:07;30.57;;;16.63;;
51660;SDS011;37741;49.748;8.490;2022-12-18T08:03:35;30.13;;;17.83;;
51660;SDS011;37741;49.748;8.490;2022-12-18T08:06:01;30.57;;;16.87;;
51660;SDS011;37741;49.748;8.490;2022-12-18T08:08:32;29.97;;;16.30;;
51660;SDS011;37741;49.748;8.490;2022-12-18T08:10:58;30.60;;;16.77;;
51660;SDS011;37741;49.748;8.490;2022-12-18T08:13:24;31.90;;;17.63;;
51660;SDS011;37741;49.748;8.490;2022-12-18T08:15:57;31.83;;;17.03;;
51660;SDS011;37741;49.748;8.490;2022-12-18T08:18:27;34.03;;;18.07;;
51660;SDS011;37741;49.748;8.490;2022-12-18T08:20:54;33.17;;;18.20;;
51660;SDS011;37741;49.748;8.490;2022-12-18T08:23:20;35.27;;;19.57;;
51660;SDS011;37741;49.748;8.490;2022-12-18T08:25:46;32.10;;;16.30;;
51660;SDS011;37741;49.748;8.490;2022-12-18T08:28:12;33.03;;;18.10;;
51660;SDS011;37741;49.748;8.490;2022-12-18T08:30:37;31.67;;;17.07;;
51660;SDS011;37741;49.748;8.490;2022-12-18T08:33:03;33.70;;;18.33;;
51660;SDS011;37741;49.748;8.490;2022-12-18T08:35:29;29.83;;;18.07;;
51660;SDS011;37741;49.748;8.490;2022-12-18T08:37:55;29.53;;;16.63;;
51660;SDS011;37741;49.748;8.490;2022-12-18T08:40:21;34.23;;;18.97;;
51660;SDS011;37741;49.748;8.490;2022-12-18T08:42:47;34.00;;;18.77;;
51660;SDS011;37741;49.748;8.490;2022-12-18T09:19:57;37.17;;;22.40;;
51660;SDS011;37741;49.748;8.490;2022-12-18T09:22:25;43.40;;;24.40;;
51660;SDS011;37741;49.748;8.490;2022-12-18T09:24:51;41.33;;;22.33;;
51660;SDS011;37741;49.748;8.490;2022-12-18T09:27:16;40.53;;;22.67;;
51660;SDS011;37741;49.748;8.490;2022-12-18T09:29:42;38.97;;;21.20;;
51660;SDS011;37741;49.748;8.490;2022-12-18T09:32:08;44.17;;;23.47;;
51660;SDS011;37741;49.748;8.490;2022-12-18T09:34:33;44.10;;;22.93;;
51660;SDS011;37741;49.748;8.490;2022-12-18T09:36:59;38.00;;;21.93;;
51660;SDS011;37741;49.748;8.490;2022-12-18T09:39:24;37.43;;;21.73;;
51660;SDS011;37741;49.748;8.490;2022-12-18T09:41:51;41.97;;;22.67;;
51660;SDS011;37741;49.748;8.490;2022-12-18T09:44:26;40.97;;;22.00;;
51660;SDS011;37741;49.748;8.490;2022-12-18T09:47:18;38.47;;;23.37;;
51660;SDS011;37741;49.748;8.490;2022-12-18T09:49:56;39.17;;;22.30;;
51660;SDS011;37741;49.748;8.490;2022-12-18T09:55:13;38.87;;;21.30;;
51660;SDS011;37741;49.748;8.490;2022-12-18T09:57:42;40.23;;;23.07;;
51660;SDS011;37741;49.748;8.490;2022-12-18T10:00:19;41.57;;;21.37;;
51660;SDS011;37741;49.748;8.490;2022-12-18T10:02:47;38.60;;;22.53;;
51660;SDS011;37741;49.748;8.490;2022-12-18T10:05:16;38.97;;;22.37;;
51660;SDS011;37741;49.748;8.490;2022-12-18T10:07:53;37.27;;;21.10;;
51660;SDS011;37741;49.748;8.490;2022-12-18T10:17:44;41.50;;;22.50;;
51660;SDS011;37741;49.748;8.490;2022-12-18T10:20:32;38.80;;;21.77;;
51660;SDS011;37741;49.748;8.490;2022-12-18T10:23:25;42.33;;;22.83;;
51660;SDS011;37741;49.748;8.490;2022-12-18T10:26:10;40.50;;;23.30;;
51660;SDS011;37741;49.748;8.490;2022-12-18T10:31:41;37.27;;;23.20;;
51660;SDS011;37741;49.748;8.490;2022-12-18T10:34:10;39.53;;;21.90;;
51660;SDS011;37741;49.748;8.490;2022-12-18T10:36:39;42.47;;;23.97;;
51660;SDS011;37741;49.748;8.490;2022-12-18T10:39:19;39.77;;;22.70;;
51660;SDS011;37741;49.748;8.490;2022-12-18T10:41:50;41.33;;;22.97;;
51660;SDS011;37741;49.748;8.490;2022-12-18T10:44:23;40.77;;;23.17;;
51660;SDS011;37741;49.748;8.490;2022-12-18T10:46:55;37.73;;;21.87;;
51660;SDS011;37741;49.748;8.490;2022-12-18T10:49:29;41.30;;;22.73;;
51660;SDS011;37741;49.748;8.490;2022-12-18T10:52:30;39.80;;;23.17;;
51660;SDS011;37741;49.748;8.490;2022-12-18T10:54:54;40.30;;;23.27;;
51660;SDS011;37741;49.748;8.490;2022-12-18T10:57:32;36.17;;;22.20;;
51660;SDS011;37741;49.748;8.490;2022-12-18T11:00:21;40.83;;;23.20;;
51660;SDS011;37741;49.748;8.490;2022-12-18T11:02:49;37.23;;;21.50;;
51660;SDS011;37741;49.748;8.490;2022-12-18T11:05:33;43.77;;;23.60;;
51660;SDS011;37741;49.748;8.490;2022-12-18T11:07:59;40.23;;;23.20;;
51660;SDS011;37741;49.748;8.490;2022-12-18T11:10:30;43.00;;;22.50;;
51660;SDS011;37741;49.748;8.490;2022-12-18T11:15:47;40.67;;;22.17;;
51660;SDS011;37741;49.748;8.490;2022-12-18T11:18:22;34.73;;;21.00;;
51660;SDS011;37741;49.748;8.490;2022-12-18T11:20:56;34.17;;;21.30;;
51660;SDS011;37741;49.748;8.490;2022-12-18T11:23:24;34.20;;;21.70;;
51660;SDS011;37741;49.748;8.490;2022-12-18T11:25:52;37.07;;;21.47;;
51660;SDS011;37741;49.748;8.490;2022-12-18T11:28:36;36.80;;;21.77;;
51660;SDS011;37741;49.748;8.490;2022-12-18T11:31:17;38.73;;;22.47;;
51660;SDS011;37741;49.748;8.490;2022-12-18T11:36:46;39.30;;;21.90;;
51660;SDS011;37741;49.748;8.490;2022-12-18T11:44:59;38.73;;;21.73;;
51660;SDS011;37741;49.748;8.490;2022-12-18T11:50:12;41.33;;;22.17;;
51660;SDS011;37741;49.748;8.490;2022-12-18T11:52:48;35.23;;;20.07;;
51660;SDS011;37741;49.748;8.490;2022-12-18T11:55:15;39.93;;;22.23;;
51660;SDS011;37741;49.748;8.490;2022-12-18T11:58:05;39.07;;;20.83;;
51660;SDS011;37741;49.748;8.490;2022-12-18T12:01:36;36.67;;;21.83;;
51660;SDS011;37741;49.748;8.490;2022-12-18T12:07:15;38.33;;;21.90;;
51660;SDS011;37741;49.748;8.490;2022-12-18T12:09:58;38.10;;;23.17;;
51660;SDS011;37741;49.748;8.490;2022-12-18T12:26:38;32.60;;;20.17;;
51660;SDS011;37741;49.748;8.490;2022-12-18T12:29:21;39.47;;;20.97;;
51660;SDS011;37741;49.748;8.490;2022-12-18T12:34:47;38.03;;;21.03;;
51660;SDS011;37741;49.748;8.490;2022-12-18T12:40:24;33.83;;;20.53;;
51660;SDS011;37741;49.748;8.490;2022-12-18T12:42:58;35.67;;;21.87;;
51660;SDS011;37741;49.748;8.490;2022-12-18T12:45:42;33.37;;;20.20;;
51660;SDS011;37741;49.748;8.490;2022-12-18T12:51:57;36.73;;;20.20;;
51660;SDS011;37741;49.748;8.490;2022-12-18T12:54:12;36.90;;;21.13;;
51660;SDS011;37741;49.748;8.490;2022-12-18T13:02:14;34.43;;;21.23;;
51660;SDS011;37741;49.748;8.490;2022-12-18T13:05:04;35.70;;;20.90;;
51660;SDS011;37741;49.748;8.490;2022-12-18T13:07:55;34.47;;;20.67;;
51660;SDS011;37741;49.748;8.490;2022-12-18T13:10:32;37.00;;;21.17;;
51660;SDS011;37741;49.748;8.490;2022-12-18T13:13:09;37.13;;;21.27;;
51660;SDS011;37741;49.748;8.490;2022-12-18T13:18:32;37.50;;;21.87;;
51660;SDS011;37741;49.748;8.490;2022-12-18T14:26:38;37.10;;;21.53;;
51660;SDS011;37741;49.748;8.490;2022-12-18T14:32:30;38.53;;;23.13;;
51660;SDS011;37741;49.748;8.490;2022-12-18T14:34:56;39.53;;;21.93;;
51660;SDS011;37741;49.748;8.490;2022-12-18T14:37:26;41.37;;;22.17;;
51660;SDS011;37741;49.748;8.490;2022-12-18T14:39:59;38.97;;;23.63;;
51660;SDS011;37741;49.748;8.490;2022-12-18T14:42:27;37.60;;;23.05;;
51660;SDS011;37741;49.748;8.490;2022-12-18T15:34:34;42.70;;;25.37;;
51660;SDS011;37741;49.748;8.490;2022-12-18T15:37:00;40.87;;;24.03;;
51660;SDS011;37741;49.748;8.490;2022-12-18T15:39:26;42.13;;;24.53;;
51660;SDS011;37741;49.748;8.490;2022-12-18T15:41:51;40.93;;;24.03;;
51660;SDS011;37741;49.748;8.490;2022-12-18T15:44:35;45.77;;;24.83;;
51660;SDS011;37741;49.748;8.490;2022-12-18T15:47:02;42.90;;;23.70;;
51660;SDS011;37741;49.748;8.490;2022-12-18T15:49:32;48.30;;;25.40;;
51660;SDS011;37741;49.748;8.490;2022-12-18T15:51:58;45.07;;;26.27;;
51660;SDS011;37741;49.748;8.490;2022-12-18T15:54:26;42.17;;;26.30;;
51660;SDS011;37741;49.748;8.490;2022-12-18T15:57:10;47.23;;;25.27;;
51660;SDS011;37741;49.748;8.490;2022-12-18T15:59:55;44.13;;;24.70;;
51660;SDS011;37741;49.748;8.490;2022-12-18T16:02:23;46.07;;;27.00;;
51660;SDS011;37741;49.748;8.490;2022-12-18T16:04:51;56.30;;;32.47;;
51660;SDS011;37741;49.748;8.490;2022-12-18T16:07:17;51.97;;;29.97;;
51660;SDS011;37741;49.748;8.490;2022-12-18T16:09:43;57.03;;;32.37;;
51660;SDS011;37741;49.748;8.490;2022-12-18T16:12:19;51.10;;;28.53;;
51660;SDS011;37741;49.748;8.490;2022-12-18T16:14:47;54.27;;;29.10;;
51660;SDS011;37741;49.748;8.490;2022-12-18T16:17:13;50.63;;;29.73;;
51660;SDS011;37741;49.748;8.490;2022-12-18T16:19:42;52.57;;;28.53;;
51660;SDS011;37741;49.748;8.490;2022-12-18T16:22:15;50.37;;;27.07;;
51660;SDS011;37741;49.748;8.490;2022-12-18T16:24:56;49.17;;;27.43;;
51660;SDS011;37741;49.748;8.490;2022-12-18T16:27:22;49.57;;;28.77;;
51660;SDS011;37741;49.748;8.490;2022-12-18T16:29:49;47.43;;;26.13;;
51660;SDS011;37741;49.748;8.490;2022-12-18T16:32:15;46.73;;;27.63;;
51660;SDS011;37741;49.748;8.490;2022-12-18T16:34:44;45.10;;;27.93;;
51660;SDS011;37741;49.748;8.490;2022-12-18T16:37:11;47.70;;;27.90;;
51660;SDS011;37741;49.748;8.490;2022-12-18T16:39:39;48.33;;;28.27;;
51660;SDS011;37741;49.748;8.490;2022-12-18T16:42:26;45.57;;;25.57;;
51660;SDS011;37741;49.748;8.490;2022-12-18T16:44:51;45.83;;;27.13;;
51660;SDS011;37741;49.748;8.490;2022-12-18T16:47:17;45.03;;;25.60;;
51660;SDS011;37741;49.748;8.490;2022-12-18T16:49:43;42.57;;;24.97;;
51660;SDS011;37741;49.748;8.490;2022-12-18T16:52:09;45.73;;;26.30;;
51660;SDS011;37741;49.748;8.490;2022-12-18T16:54:35;42.50;;;25.43;;
51660;SDS011;37741;49.748;8.490;2022-12-18T16:57:01;45.77;;;26.90;;
51660;SDS011;37741;49.748;8.490;2022-12-18T16:59:29;41.43;;;24.33;;
51660;SDS011;37741;49.748;8.490;2022-12-18T17:01:55;48.57;;;25.87;;
51660;SDS011;37741;49.748;8.490;2022-12-18T17:04:21;45.33;;;28.03;;
51660;SDS011;37741;49.748;8.490;2022-12-18T17:06:46;47.17;;;26.73;;
51660;SDS011;37741;49.748;8.490;2022-12-18T17:09:16;42.30;;;23.97;;
51660;SDS011;37741;49.748;8.490;2022-12-18T17:11:52;39.75;;;24.13;;
51660;SDS011;37741;49.748;8.490;2022-12-18T17:14:19;47.30;;;27.20;;
51660;SDS011;37741;49.748;8.490;2022-12-18T17:16:46;47.07;;;25.90;;
51660;SDS011;37741;49.748;8.490;2022-12-18T17:19:13;38.37;;;25.40;;
51660;SDS011;37741;49.748;8.490;2022-12-18T17:21:40;49.77;;;26.73;;
51660;SDS011;37741;49.748;8.490;2022-12-18T17:24:07;43.73;;;26.40;;
51660;SDS011;37741;49.748;8.490;2022-12-18T17:26:33;41.43;;;25.83;;
51660;SDS011;37741;49.748;8.490;2022-12-18T17:28:58;43.97;;;26.30;;
51660;SDS011;37741;49.748;8.490;2022-12-18T17:31:25;45.60;;;26.10;;
51660;SDS011;37741;49.748;8.490;2022-12-18T17:33:53;43.40;;;24.87;;
51660;SDS011;37741;49.748;8.490;2022-12-18T17:39:54;44.30;;;24.43;;
51660;SDS011;37741;49.748;8.490;2022-12-18T17:42:19;44.10;;;25.03;;
51660;SDS011;37741;49.748;8.490;2022-12-18T17:44:45;44.60;;;26.77;;
51660;SDS011;37741;49.748;8.490;2022-12-18T17:47:11;40.43;;;24.37;;
51660;SDS011;37741;49.748;8.490;2022-12-18T17:49:37;41.00;;;25.50;;
51660;SDS011;37741;49.748;8.490;2022-12-18T17:52:03;44.40;;;25.07;;
51660;SDS011;37741;49.748;8.490;2022-12-18T17:54:29;40.87;;;23.70;;
51660;SDS011;37741;49.748;8.490;2022-12-18T17:56:54;41.47;;;25.93;;
51660;SDS011;37741;49.748;8.490;2022-12-18T17:59:23;42.03;;;25.53;;
51660;SDS011;37741;49.748;8.490;2022-12-18T18:01:49;39.83;;;24.47;;
51660;SDS011;37741;49.748;8.490;2022-12-18T18:04:14;40.87;;;25.60;;
51660;SDS011;37741;49.748;8.490;2022-12-18T18:06:40;41.33;;;25.57;;
51660;SDS011;37741;49.748;8.490;2022-12-18T18:09:09;44.40;;;24.60;;
51660;SDS011;37741;49.748;8.490;2022-12-18T18:12:04;36.85;;;23.13;;
51660;SDS011;37741;49.748;8.490;2022-12-18T18:17:37;44.77;;;25.57;;
51660;SDS011;37741;49.748;8.490;2022-12-18T18:20:03;44.07;;;25.77;;
51660;SDS011;37741;49.748;8.490;2022-12-18T18:22:30;41.80;;;25.00;;
51660;SDS011;37741;49.748;8.490;2022-12-18T18:24:56;44.63;;;25.63;;
51660;SDS011;37741;49.748;8.490;2022-12-18T18:27:22;41.90;;;24.40;;
51660;SDS011;37741;49.748;8.490;2022-12-18T18:29:48;39.27;;;25.27;;
51660;SDS011;37741;49.748;8.490;2022-12-18T18:32:16;45.23;;;25.27;;
51660;SDS011;37741;49.748;8.490;2022-12-18T18:34:41;41.27;;;24.03;;
51660;SDS011;37741;49.748;8.490;2022-12-18T18:37:10;40.10;;;24.10;;
51660;SDS011;37741;49.748;8.490;2022-12-18T18:39:36;42.37;;;26.23;;